sensor_id;sensor_type;location;lat;lon;timestamp;pressure;altitude;pressure_sealevel;temperature;humidity
46211;BME280;52144;48.040;-1.594;2023-08-06T00:01:20;101202.16;;;18.19;83.08
46211;BME280;52144;48.040;-1.594;2023-08-06T00:03:49;101203.91;;;18.20;83.17
46211;BME280;52144;48.040;-1.594;2023-08-06T00:06:17;101210.56;;;18.53;81.75
46211;BME280;52144;48.040;-1.594;2023-08-06T00:08:45;101215.84;;;18.67;81.00
46211;BME280;52144;48.040;-1.594;2023-08-06T00:11:12;101219.06;;;18.72;80.28
46211;BME280;52144;48.040;-1.594;2023-08-06T00:13:41;101217.81;;;18.52;81.48
46211;BME280;52144;48.040;-1.594;2023-08-06T00:16:10;101225.59;;;18.44;82.25
46211;BME280;52144;48.040;-1.594;2023-08-06T00:18:38;101230.13;;;18.56;82.19
46211;BME280;52144;48.040;-1.594;2023-08-06T00:21:06;101222.97;;;18.04;84.22
46211;BME280;52144;48.040;-1.594;2023-08-06T00:23:34;101223.88;;;18.30;83.84
46211;BME280;52144;48.040;-1.594;2023-08-06T00:26:02;101225.16;;;18.12;84.31
46211;BME280;52144;48.040;-1.594;2023-08-06T00:28:30;101225.13;;;18.37;83.25
46211;BME280;52144;48.040;-1.594;2023-08-06T00:30:59;101218.34;;;18.32;82.79
46211;BME280;52144;48.040;-1.594;2023-08-06T00:33:27;101221.03;;;18.32;83.04
46211;BME280;52144;48.040;-1.594;2023-08-06T00:35:54;101225.59;;;18.06;84.17
46211;BME280;52144;48.040;-1.594;2023-08-06T00:38:22;101228.94;;;18.22;83.80
46211;BME280;52144;48.040;-1.594;2023-08-06T00:40:50;101229.66;;;18.50;82.02
46211;BME280;52144;48.040;-1.594;2023-08-06T00:43:18;101231.75;;;17.80;85.37
46211;BME280;52144;48.040;-1.594;2023-08-06T00:45:46;101232.00;;;17.90;85.33
46211;BME280;52144;48.040;-1.594;2023-08-06T00:48:15;101221.34;;;17.89;85.57
46211;BME280;52144;48.040;-1.594;2023-08-06T00:50:44;101216.88;;;17.75;87.15
46211;BME280;52144;48.040;-1.594;2023-08-06T00:53:11;101231.50;;;17.71;87.24
46211;BME280;52144;48.040;-1.594;2023-08-06T00:55:39;101241.44;;;18.10;85.00
46211;BME280;52144;48.040;-1.594;2023-08-06T00:58:07;101239.63;;;18.36;83.35
46211;BME280;52144;48.040;-1.594;2023-08-06T01:00:35;101252.97;;;18.25;82.54
46211;BME280;52144;48.040;-1.594;2023-08-06T01:03:04;101246.69;;;17.86;85.35
46211;BME280;52144;48.040;-1.594;2023-08-06T01:05:34;101249.28;;;18.00;84.58
46211;BME280;52144;48.040;-1.594;2023-08-06T01:08:12;101249.22;;;17.75;85.73
46211;BME280;52144;48.040;-1.594;2023-08-06T01:10:51;101249.06;;;17.63;86.69
46211;BME280;52144;48.040;-1.594;2023-08-06T01:13:30;101260.53;;;18.20;83.40
46211;BME280;52144;48.040;-1.594;2023-08-06T01:16:00;101264.66;;;18.38;81.74
46211;BME280;52144;48.040;-1.594;2023-08-06T01:18:29;101266.91;;;17.79;85.06
46211;BME280;52144;48.040;-1.594;2023-08-06T01:21:01;101268.97;;;18.28;82.64
46211;BME280;52144;48.040;-1.594;2023-08-06T01:23:29;101264.84;;;18.10;83.45
46211;BME280;52144;48.040;-1.594;2023-08-06T01:26:03;101279.09;;;18.12;84.12
46211;BME280;52144;48.040;-1.594;2023-08-06T01:28:37;101280.94;;;18.24;83.04
46211;BME280;52144;48.040;-1.594;2023-08-06T01:31:12;101276.91;;;17.91;84.29
46211;BME280;52144;48.040;-1.594;2023-08-06T01:33:44;101273.59;;;17.32;87.53
46211;BME280;52144;48.040;-1.594;2023-08-06T01:36:15;101278.69;;;17.63;86.32
46211;BME280;52144;48.040;-1.594;2023-08-06T01:38:44;101278.09;;;18.00;83.66
46211;BME280;52144;48.040;-1.594;2023-08-06T01:41:12;101279.38;;;17.67;85.00
46211;BME280;52144;48.040;-1.594;2023-08-06T01:43:40;101273.06;;;17.54;86.88
46211;BME280;52144;48.040;-1.594;2023-08-06T01:46:08;101280.25;;;17.80;84.94
46211;BME280;52144;48.040;-1.594;2023-08-06T01:48:35;101281.56;;;17.75;85.94
46211;BME280;52144;48.040;-1.594;2023-08-06T01:51:04;101291.41;;;17.34;87.68
46211;BME280;52144;48.040;-1.594;2023-08-06T01:53:33;101280.50;;;17.36;87.24
46211;BME280;52144;48.040;-1.594;2023-08-06T01:56:01;101280.38;;;17.52;87.01
46211;BME280;52144;48.040;-1.594;2023-08-06T01:58:29;101286.28;;;17.71;85.53
46211;BME280;52144;48.040;-1.594;2023-08-06T02:00:57;101286.38;;;17.70;85.23
46211;BME280;52144;48.040;-1.594;2023-08-06T02:03:25;101292.63;;;17.43;87.03
46211;BME280;52144;48.040;-1.594;2023-08-06T02:05:53;101289.19;;;17.41;87.09
46211;BME280;52144;48.040;-1.594;2023-08-06T02:08:21;101293.06;;;17.22;88.69
46211;BME280;52144;48.040;-1.594;2023-08-06T02:10:50;101299.50;;;17.34;88.29
46211;BME280;52144;48.040;-1.594;2023-08-06T02:13:18;101299.19;;;17.39;87.93
46211;BME280;52144;48.040;-1.594;2023-08-06T02:15:46;101303.81;;;17.37;88.60
46211;BME280;52144;48.040;-1.594;2023-08-06T02:18:15;101301.94;;;17.52;88.81
46211;BME280;52144;48.040;-1.594;2023-08-06T02:20:42;101309.69;;;17.56;86.31
46211;BME280;52144;48.040;-1.594;2023-08-06T02:23:10;101303.81;;;17.37;87.83
46211;BME280;52144;48.040;-1.594;2023-08-06T02:25:38;101301.88;;;17.66;86.65
46211;BME280;52144;48.040;-1.594;2023-08-06T02:28:07;101303.16;;;17.19;88.16
46211;BME280;52144;48.040;-1.594;2023-08-06T02:30:35;101312.56;;;17.40;87.81
46211;BME280;52144;48.040;-1.594;2023-08-06T02:33:03;101312.09;;;17.19;89.62
46211;BME280;52144;48.040;-1.594;2023-08-06T02:35:30;101304.03;;;17.19;89.02
46211;BME280;52144;48.040;-1.594;2023-08-06T02:37:58;101305.78;;;16.77;91.32
46211;BME280;52144;48.040;-1.594;2023-08-06T02:40:26;101300.50;;;17.46;86.99
46211;BME280;52144;48.040;-1.594;2023-08-06T02:42:54;101305.59;;;16.95;90.94
46211;BME280;52144;48.040;-1.594;2023-08-06T02:45:23;101302.78;;;17.11;89.01
46211;BME280;52144;48.040;-1.594;2023-08-06T02:47:51;101309.06;;;16.97;91.57
46211;BME280;52144;48.040;-1.594;2023-08-06T02:50:19;101310.97;;;16.95;90.75
46211;BME280;52144;48.040;-1.594;2023-08-06T02:52:46;101303.50;;;16.86;91.41
46211;BME280;52144;48.040;-1.594;2023-08-06T02:55:14;101302.78;;;17.11;90.02
46211;BME280;52144;48.040;-1.594;2023-08-06T02:57:42;101305.13;;;17.02;91.24
46211;BME280;52144;48.040;-1.594;2023-08-06T03:00:10;101305.59;;;16.95;91.27
46211;BME280;52144;48.040;-1.594;2023-08-06T03:02:40;101309.22;;;16.65;92.52
46211;BME280;52144;48.040;-1.594;2023-08-06T03:05:08;101306.44;;;16.67;92.55
46211;BME280;52144;48.040;-1.594;2023-08-06T03:07:35;101313.09;;;17.04;90.40
46211;BME280;52144;48.040;-1.594;2023-08-06T03:10:04;101317.09;;;17.25;89.86
46211;BME280;52144;48.040;-1.594;2023-08-06T03:12:32;101320.44;;;17.43;87.93
46211;BME280;52144;48.040;-1.594;2023-08-06T03:15:00;101320.75;;;17.24;88.93
46211;BME280;52144;48.040;-1.594;2023-08-06T03:17:28;101316.94;;;17.00;89.52
46211;BME280;52144;48.040;-1.594;2023-08-06T03:19:57;101310.41;;;16.90;91.54
46211;BME280;52144;48.040;-1.594;2023-08-06T03:22:25;101303.38;;;17.01;90.63
46211;BME280;52144;48.040;-1.594;2023-08-06T03:24:52;101309.28;;;17.35;88.66
46211;BME280;52144;48.040;-1.594;2023-08-06T03:27:20;101311.34;;;17.17;89.65
46211;BME280;52144;48.040;-1.594;2023-08-06T03:29:48;101320.03;;;16.94;91.12
46211;BME280;52144;48.040;-1.594;2023-08-06T03:32:16;101316.97;;;17.41;87.90
46211;BME280;52144;48.040;-1.594;2023-08-06T03:34:45;101325.41;;;17.50;87.97
46211;BME280;52144;48.040;-1.594;2023-08-06T03:37:14;101318.38;;;17.61;87.24
46211;BME280;52144;48.040;-1.594;2023-08-06T03:39:42;101322.00;;;17.60;87.09
46211;BME280;52144;48.040;-1.594;2023-08-06T03:42:10;101330.13;;;17.46;87.59
46211;BME280;52144;48.040;-1.594;2023-08-06T03:44:37;101323.22;;;17.42;88.21
46211;BME280;52144;48.040;-1.594;2023-08-06T03:47:05;101325.75;;;17.31;89.17
46211;BME280;52144;48.040;-1.594;2023-08-06T03:49:33;101323.47;;;17.24;89.39
46211;BME280;52144;48.040;-1.594;2023-08-06T03:52:01;101323.28;;;17.13;89.83
46211;BME280;52144;48.040;-1.594;2023-08-06T03:54:30;101317.63;;;17.18;89.06
46211;BME280;52144;48.040;-1.594;2023-08-06T03:56:58;101324.44;;;17.09;89.96
46211;BME280;52144;48.040;-1.594;2023-08-06T03:59:26;101331.94;;;17.18;90.42
46211;BME280;52144;48.040;-1.594;2023-08-06T04:01:54;101338.63;;;17.25;90.17
46211;BME280;52144;48.040;-1.594;2023-08-06T04:04:21;101332.88;;;17.03;90.85
46211;BME280;52144;48.040;-1.594;2023-08-06T04:06:49;101330.22;;;16.89;91.53
46211;BME280;52144;48.040;-1.594;2023-08-06T04:09:17;101337.84;;;16.66;93.01
46211;BME280;52144;48.040;-1.594;2023-08-06T04:11:46;101339.63;;;17.24;91.08
46211;BME280;52144;48.040;-1.594;2023-08-06T04:14:14;101347.63;;;17.12;90.41
46211;BME280;52144;48.040;-1.594;2023-08-06T04:16:42;101344.63;;;17.16;90.39
46211;BME280;52144;48.040;-1.594;2023-08-06T04:19:10;101349.03;;;17.03;90.62
46211;BME280;52144;48.040;-1.594;2023-08-06T04:21:37;101347.41;;;16.86;91.54
46211;BME280;52144;48.040;-1.594;2023-08-06T04:24:04;101353.72;;;16.71;93.94
46211;BME280;52144;48.040;-1.594;2023-08-06T04:26:32;101350.81;;;16.59;93.96
46211;BME280;52144;48.040;-1.594;2023-08-06T04:29:01;101355.78;;;16.81;93.14
46211;BME280;52144;48.040;-1.594;2023-08-06T04:31:29;101352.97;;;16.83;92.46
46211;BME280;52144;48.040;-1.594;2023-08-06T04:33:57;101355.78;;;16.81;93.38
46211;BME280;52144;48.040;-1.594;2023-08-06T04:36:25;101355.22;;;16.60;93.59
46211;BME280;52144;48.040;-1.594;2023-08-06T04:38:52;101343.56;;;16.90;92.05
46211;BME280;52144;48.040;-1.594;2023-08-06T04:41:20;101343.75;;;16.87;92.00
46211;BME280;52144;48.040;-1.594;2023-08-06T04:43:48;101357.72;;;16.94;91.42
46211;BME280;52144;48.040;-1.594;2023-08-06T04:46:17;101359.03;;;16.87;91.78
46211;BME280;52144;48.040;-1.594;2023-08-06T04:48:45;101374.63;;;16.81;93.47
46211;BME280;52144;48.040;-1.594;2023-08-06T04:51:13;101368.50;;;16.63;93.23
46211;BME280;52144;48.040;-1.594;2023-08-06T04:53:40;101372.66;;;16.69;92.77
46211;BME280;52144;48.040;-1.594;2023-08-06T04:56:08;101376.69;;;16.76;94.08
46211;BME280;52144;48.040;-1.594;2023-08-06T04:58:36;101374.38;;;16.70;93.04
46211;BME280;52144;48.040;-1.594;2023-08-06T05:01:06;101377.47;;;16.78;93.21
46211;BME280;52144;48.040;-1.594;2023-08-06T05:03:35;101382.94;;;16.77;94.13
46211;BME280;52144;48.040;-1.594;2023-08-06T05:06:03;101387.63;;;16.59;94.23
46211;BME280;52144;48.040;-1.594;2023-08-06T05:08:30;101392.91;;;16.75;93.27
46211;BME280;52144;48.040;-1.594;2023-08-06T05:10:58;101398.31;;;16.75;94.02
46211;BME280;52144;48.040;-1.594;2023-08-06T05:13:26;101397.97;;;16.81;93.03
46211;BME280;52144;48.040;-1.594;2023-08-06T05:15:54;101396.34;;;17.21;91.06
46211;BME280;52144;48.040;-1.594;2023-08-06T05:18:22;101388.38;;;17.34;89.83
46211;BME280;52144;48.040;-1.594;2023-08-06T05:20:51;101399.69;;;17.54;84.04
46211;BME280;52144;48.040;-1.594;2023-08-06T05:23:18;101405.78;;;17.43;83.04
46211;BME280;52144;48.040;-1.594;2023-08-06T05:25:46;101406.34;;;17.05;87.18
46211;BME280;52144;48.040;-1.594;2023-08-06T05:28:14;101410.88;;;17.19;84.59
46211;BME280;52144;48.040;-1.594;2023-08-06T05:30:42;101411.34;;;17.11;88.23
46211;BME280;52144;48.040;-1.594;2023-08-06T05:33:09;101415.00;;;16.81;92.47
46211;BME280;52144;48.040;-1.594;2023-08-06T05:35:37;101409.28;;;16.72;93.11
46211;BME280;52144;48.040;-1.594;2023-08-06T05:38:06;101424.63;;;17.00;91.23
46211;BME280;52144;48.040;-1.594;2023-08-06T05:40:34;101421.94;;;16.86;94.07
46211;BME280;52144;48.040;-1.594;2023-08-06T05:43:02;101426.34;;;16.87;93.36
46211;BME280;52144;48.040;-1.594;2023-08-06T05:45:30;101427.41;;;16.98;93.99
46211;BME280;52144;48.040;-1.594;2023-08-06T05:47:58;101427.78;;;16.92;94.21
46211;BME280;52144;48.040;-1.594;2023-08-06T05:50:26;101426.25;;;16.88;95.90
46211;BME280;52144;48.040;-1.594;2023-08-06T05:52:54;101436.94;;;17.04;94.08
46211;BME280;52144;48.040;-1.594;2023-08-06T05:55:24;101438.88;;;17.02;94.02
46211;BME280;52144;48.040;-1.594;2023-08-06T05:57:51;101437.91;;;17.17;93.64
46211;BME280;52144;48.040;-1.594;2023-08-06T06:00:21;101448.50;;;17.35;94.13
46211;BME280;52144;48.040;-1.594;2023-08-06T06:02:49;101453.50;;;17.55;91.77
46211;BME280;52144;48.040;-1.594;2023-08-06T06:05:17;101450.59;;;17.58;91.51
46211;BME280;52144;48.040;-1.594;2023-08-06T06:07:44;101465.59;;;17.62;91.55
46211;BME280;52144;48.040;-1.594;2023-08-06T06:10:12;101463.88;;;17.33;93.47
46211;BME280;52144;48.040;-1.594;2023-08-06T06:12:41;101464.94;;;17.30;94.16
46211;BME280;52144;48.040;-1.594;2023-08-06T06:15:09;101468.69;;;17.28;94.67
46211;BME280;52144;48.040;-1.594;2023-08-06T06:17:37;101473.13;;;17.29;95.04
46211;BME280;52144;48.040;-1.594;2023-08-06T06:20:07;101481.47;;;17.96;92.60
46211;BME280;52144;48.040;-1.594;2023-08-06T06:22:34;101482.34;;;17.68;92.75
46211;BME280;52144;48.040;-1.594;2023-08-06T06:25:03;101482.28;;;18.11;91.02
46211;BME280;52144;48.040;-1.594;2023-08-06T06:27:31;101480.00;;;18.04;91.31
46211;BME280;52144;48.040;-1.594;2023-08-06T06:30:00;101478.59;;;17.70;93.47
46211;BME280;52144;48.040;-1.594;2023-08-06T06:32:27;101487.66;;;17.69;93.69
46211;BME280;52144;48.040;-1.594;2023-08-06T06:34:55;101484.56;;;17.61;95.35
46211;BME280;52144;48.040;-1.594;2023-08-06T06:37:23;101488.22;;;17.89;94.41
46211;BME280;52144;48.040;-1.594;2023-08-06T06:39:51;101490.81;;;17.90;93.69
46211;BME280;52144;48.040;-1.594;2023-08-06T06:42:19;101493.75;;;18.14;93.24
46211;BME280;52144;48.040;-1.594;2023-08-06T06:44:47;101495.00;;;18.50;91.20
46211;BME280;52144;48.040;-1.594;2023-08-06T06:47:16;101495.19;;;18.47;91.43
46211;BME280;52144;48.040;-1.594;2023-08-06T06:49:43;101506.84;;;18.48;92.95
46211;BME280;52144;48.040;-1.594;2023-08-06T06:52:11;101504.72;;;18.53;90.46
46211;BME280;52144;48.040;-1.594;2023-08-06T06:54:39;101499.50;;;18.22;93.26
46211;BME280;52144;48.040;-1.594;2023-08-06T06:57:07;101503.25;;;18.34;92.31
46211;BME280;52144;48.040;-1.594;2023-08-06T06:59:35;101503.97;;;18.63;90.65
46211;BME280;52144;48.040;-1.594;2023-08-06T07:02:03;101514.19;;;19.26;89.28
46211;BME280;52144;48.040;-1.594;2023-08-06T07:04:32;101517.41;;;19.18;89.05
46211;BME280;52144;48.040;-1.594;2023-08-06T07:07:00;101516.50;;;19.04;89.02
46211;BME280;52144;48.040;-1.594;2023-08-06T07:09:28;101524.94;;;18.87;89.69
46211;BME280;52144;48.040;-1.594;2023-08-06T07:11:55;101521.97;;;19.17;87.90
46211;BME280;52144;48.040;-1.594;2023-08-06T07:14:25;101515.84;;;18.88;89.38
46211;BME280;52144;48.040;-1.594;2023-08-06T07:16:52;101519.06;;;18.80;91.22
46211;BME280;52144;48.040;-1.594;2023-08-06T07:19:20;101524.13;;;19.38;88.40
46211;BME280;52144;48.040;-1.594;2023-08-06T07:21:49;101527.88;;;19.22;88.30
46211;BME280;52144;48.040;-1.594;2023-08-06T07:24:18;101522.31;;;18.86;90.24
46211;BME280;52144;48.040;-1.594;2023-08-06T07:26:46;101523.78;;;18.77;90.58
46211;BME280;52144;48.040;-1.594;2023-08-06T07:29:13;101521.31;;;19.52;88.72
46211;BME280;52144;48.040;-1.594;2023-08-06T07:31:46;101510.00;;;20.10;84.89
46211;BME280;52144;48.040;-1.594;2023-08-06T07:34:13;101523.56;;;19.58;86.74
46211;BME280;52144;48.040;-1.594;2023-08-06T07:36:43;101525.47;;;20.08;85.19
46211;BME280;52144;48.040;-1.594;2023-08-06T07:39:12;101527.16;;;19.84;85.57
46211;BME280;52144;48.040;-1.594;2023-08-06T07:41:40;101525.72;;;19.53;87.79
46211;BME280;52144;48.040;-1.594;2023-08-06T07:44:08;101528.59;;;20.38;83.43
46211;BME280;52144;48.040;-1.594;2023-08-06T07:46:36;101529.69;;;20.12;83.06
46211;BME280;52144;48.040;-1.594;2023-08-06T07:49:05;101525.19;;;19.74;84.83
46211;BME280;52144;48.040;-1.594;2023-08-06T07:51:33;101524.97;;;19.90;84.07
46211;BME280;52144;48.040;-1.594;2023-08-06T07:54:00;101516.81;;;20.02;84.50
46211;BME280;52144;48.040;-1.594;2023-08-06T07:56:30;101524.44;;;20.58;82.43
46211;BME280;52144;48.040;-1.594;2023-08-06T07:58:57;101527.16;;;20.58;80.54
46211;BME280;52144;48.040;-1.594;2023-08-06T08:01:25;101523.66;;;20.32;81.22
46211;BME280;52144;48.040;-1.594;2023-08-06T08:03:53;101528.22;;;19.69;83.99
46211;BME280;52144;48.040;-1.594;2023-08-06T08:06:21;101530.63;;;19.87;83.38
46211;BME280;52144;48.040;-1.594;2023-08-06T08:08:49;101535.69;;;20.28;81.85
46211;BME280;52144;48.040;-1.594;2023-08-06T08:11:18;101534.22;;;20.48;81.23
46211;BME280;52144;48.040;-1.594;2023-08-06T08:13:47;101537.72;;;20.37;79.77
46211;BME280;52144;48.040;-1.594;2023-08-06T08:16:15;101546.19;;;20.57;80.17
46211;BME280;52144;48.040;-1.594;2023-08-06T08:18:43;101550.94;;;20.29;79.53
46211;BME280;52144;48.040;-1.594;2023-08-06T08:21:10;101543.16;;;20.61;78.24
46211;BME280;52144;48.040;-1.594;2023-08-06T08:23:38;101544.53;;;20.91;77.23
46211;BME280;52144;48.040;-1.594;2023-08-06T08:26:08;101537.94;;;21.07;76.00
46211;BME280;52144;48.040;-1.594;2023-08-06T08:28:36;101532.56;;;20.94;75.89
46211;BME280;52144;48.040;-1.594;2023-08-06T08:31:08;101538.78;;;21.07;73.20
46211;BME280;52144;48.040;-1.594;2023-08-06T08:33:35;101528.34;;;21.14;73.00
46211;BME280;52144;48.040;-1.594;2023-08-06T08:36:04;101534.53;;;20.92;73.19
46211;BME280;52144;48.040;-1.594;2023-08-06T08:38:32;101534.38;;;21.29;73.16
46211;BME280;52144;48.040;-1.594;2023-08-06T08:40:59;101541.25;;;21.10;74.35
46211;BME280;52144;48.040;-1.594;2023-08-06T08:43:28;101530.91;;;21.62;71.19
46211;BME280;52144;48.040;-1.594;2023-08-06T08:45:57;101535.47;;;21.84;70.31
46211;BME280;52144;48.040;-1.594;2023-08-06T08:48:27;101546.44;;;21.82;70.69
46211;BME280;52144;48.040;-1.594;2023-08-06T08:50:55;101542.38;;;21.99;69.53
46211;BME280;52144;48.040;-1.594;2023-08-06T08:53:23;101544.59;;;21.94;70.37
46211;BME280;52144;48.040;-1.594;2023-08-06T08:55:52;101541.16;;;21.70;71.07
46211;BME280;52144;48.040;-1.594;2023-08-06T08:58:20;101542.13;;;21.69;70.31
46211;BME280;52144;48.040;-1.594;2023-08-06T09:00:48;101543.06;;;21.45;71.03
46211;BME280;52144;48.040;-1.594;2023-08-06T09:03:16;101537.84;;;21.31;70.82
46211;BME280;52144;48.040;-1.594;2023-08-06T09:05:48;101540.03;;;21.61;70.65
46211;BME280;52144;48.040;-1.594;2023-08-06T09:08:18;101546.66;;;22.02;69.50
46211;BME280;52144;48.040;-1.594;2023-08-06T09:10:48;101539.56;;;22.56;67.77
46211;BME280;52144;48.040;-1.594;2023-08-06T09:13:16;101536.47;;;21.72;66.73
46211;BME280;52144;48.040;-1.594;2023-08-06T09:15:44;101538.06;;;21.74;65.81
46211;BME280;52144;48.040;-1.594;2023-08-06T09:18:12;101540.63;;;21.53;67.48
46211;BME280;52144;48.040;-1.594;2023-08-06T09:20:40;101532.63;;;21.16;67.80
46211;BME280;52144;48.040;-1.594;2023-08-06T09:23:10;101537.69;;;21.90;66.73
46211;BME280;52144;48.040;-1.594;2023-08-06T09:25:38;101540.97;;;22.71;64.75
46211;BME280;52144;48.040;-1.594;2023-08-06T09:28:07;101537.44;;;22.92;64.13
46211;BME280;52144;48.040;-1.594;2023-08-06T09:30:36;101548.69;;;22.55;62.02
46211;BME280;52144;48.040;-1.594;2023-08-06T09:33:08;101546.78;;;22.34;61.97
46211;BME280;52144;48.040;-1.594;2023-08-06T09:35:36;101542.19;;;22.46;63.97
46211;BME280;52144;48.040;-1.594;2023-08-06T09:38:09;101543.31;;;22.32;64.44
46211;BME280;52144;48.040;-1.594;2023-08-06T09:40:38;101532.50;;;21.87;64.62
46211;BME280;52144;48.040;-1.594;2023-08-06T09:43:06;101545.31;;;22.19;64.87
46211;BME280;52144;48.040;-1.594;2023-08-06T09:45:35;101534.97;;;21.79;66.19
46211;BME280;52144;48.040;-1.594;2023-08-06T09:48:04;101544.84;;;21.80;66.50
46211;BME280;52144;48.040;-1.594;2023-08-06T09:50:34;101550.81;;;22.51;64.41
46211;BME280;52144;48.040;-1.594;2023-08-06T09:53:04;101548.53;;;22.13;63.75
46211;BME280;52144;48.040;-1.594;2023-08-06T09:55:33;101554.31;;;22.74;62.56
46211;BME280;52144;48.040;-1.594;2023-08-06T09:58:02;101553.81;;;22.69;61.26
46211;BME280;52144;48.040;-1.594;2023-08-06T10:00:30;101548.97;;;23.16;60.48
46211;BME280;52144;48.040;-1.594;2023-08-06T10:03:06;101552.94;;;23.12;58.11
46211;BME280;52144;48.040;-1.594;2023-08-06T10:05:34;101550.38;;;22.67;58.24
46211;BME280;52144;48.040;-1.594;2023-08-06T10:08:03;101561.19;;;22.46;58.03
46211;BME280;52144;48.040;-1.594;2023-08-06T10:10:34;101551.63;;;22.63;57.80
46211;BME280;52144;48.040;-1.594;2023-08-06T10:13:03;101565.59;;;22.58;58.51
46211;BME280;52144;48.040;-1.594;2023-08-06T10:15:34;101565.28;;;22.40;60.81
46211;BME280;52144;48.040;-1.594;2023-08-06T10:18:03;101562.09;;;23.11;60.80
46211;BME280;52144;48.040;-1.594;2023-08-06T10:20:33;101562.22;;;22.34;63.07
46211;BME280;52144;48.040;-1.594;2023-08-06T10:23:02;101564.53;;;22.50;62.30
46211;BME280;52144;48.040;-1.594;2023-08-06T10:25:31;101567.94;;;22.63;62.22
46211;BME280;52144;48.040;-1.594;2023-08-06T10:28:07;101573.34;;;22.74;59.75
46211;BME280;52144;48.040;-1.594;2023-08-06T10:30:42;101571.81;;;22.81;59.07
46211;BME280;52144;48.040;-1.594;2023-08-06T10:33:10;101568.59;;;23.41;58.39
46211;BME280;52144;48.040;-1.594;2023-08-06T10:35:41;101571.69;;;23.57;57.31
46211;BME280;52144;48.040;-1.594;2023-08-06T10:38:12;101575.88;;;23.61;57.01
46211;BME280;52144;48.040;-1.594;2023-08-06T10:40:43;101567.84;;;23.60;57.46
46211;BME280;52144;48.040;-1.594;2023-08-06T10:43:27;101549.06;;;23.78;56.05
46211;BME280;52144;48.040;-1.594;2023-08-06T10:45:55;101567.16;;;23.68;55.91
46211;BME280;52144;48.040;-1.594;2023-08-06T10:48:30;101573.88;;;23.63;55.90
46211;BME280;52144;48.040;-1.594;2023-08-06T10:51:00;101561.84;;;23.87;54.74
46211;BME280;52144;48.040;-1.594;2023-08-06T10:53:28;101574.00;;;24.23;55.31
46211;BME280;52144;48.040;-1.594;2023-08-06T10:56:00;101576.84;;;24.53;53.98
46211;BME280;52144;48.040;-1.594;2023-08-06T10:58:32;101562.38;;;24.21;55.02
46211;BME280;52144;48.040;-1.594;2023-08-06T11:01:00;101567.25;;;23.77;53.35
46211;BME280;52144;48.040;-1.594;2023-08-06T11:03:29;101581.91;;;23.65;53.73
46211;BME280;52144;48.040;-1.594;2023-08-06T11:05:57;101577.59;;;23.62;54.63
46211;BME280;52144;48.040;-1.594;2023-08-06T11:08:25;101578.06;;;23.47;54.06
46211;BME280;52144;48.040;-1.594;2023-08-06T11:10:53;101574.81;;;23.53;53.63
46211;BME280;52144;48.040;-1.594;2023-08-06T11:13:29;101588.13;;;23.98;54.12
46211;BME280;52144;48.040;-1.594;2023-08-06T11:16:00;101580.03;;;23.87;53.91
46211;BME280;52144;48.040;-1.594;2023-08-06T11:18:28;101580.50;;;23.92;52.94
46211;BME280;52144;48.040;-1.594;2023-08-06T11:20:58;101581.94;;;24.36;52.61
46211;BME280;52144;48.040;-1.594;2023-08-06T11:23:26;101576.13;;;24.10;53.22
46211;BME280;52144;48.040;-1.594;2023-08-06T11:25:55;101569.84;;;23.58;54.41
46211;BME280;52144;48.040;-1.594;2023-08-06T11:28:23;101572.13;;;23.62;54.44
46211;BME280;52144;48.040;-1.594;2023-08-06T11:30:51;101569.34;;;23.74;54.07
46211;BME280;52144;48.040;-1.594;2023-08-06T11:33:21;101584.31;;;23.37;56.28
46211;BME280;52144;48.040;-1.594;2023-08-06T11:35:52;101581.47;;;23.91;55.14
46211;BME280;52144;48.040;-1.594;2023-08-06T11:38:20;101583.44;;;24.19;54.03
46211;BME280;52144;48.040;-1.594;2023-08-06T11:40:49;101577.56;;;24.14;53.96
46211;BME280;52144;48.040;-1.594;2023-08-06T11:43:18;101570.19;;;24.46;54.08
46211;BME280;52144;48.040;-1.594;2023-08-06T11:45:47;101565.25;;;23.58;55.75
46211;BME280;52144;48.040;-1.594;2023-08-06T11:48:15;101573.59;;;23.88;55.21
46211;BME280;52144;48.040;-1.594;2023-08-06T11:50:44;101560.16;;;23.65;54.85
46211;BME280;52144;48.040;-1.594;2023-08-06T11:53:14;101567.38;;;24.07;54.51
46211;BME280;52144;48.040;-1.594;2023-08-06T11:55:42;101560.19;;;24.56;53.13
46211;BME280;52144;48.040;-1.594;2023-08-06T11:58:11;101556.97;;;24.31;54.31
46211;BME280;52144;48.040;-1.594;2023-08-06T12:00:39;101549.59;;;24.53;53.90
46211;BME280;52144;48.040;-1.594;2023-08-06T12:03:07;101544.16;;;24.02;54.52
46211;BME280;52144;48.040;-1.594;2023-08-06T12:05:34;101547.75;;;23.51;55.76
46211;BME280;52144;48.040;-1.594;2023-08-06T12:08:06;101540.69;;;23.70;55.23
46211;BME280;52144;48.040;-1.594;2023-08-06T12:10:33;101556.72;;;23.63;55.30
46211;BME280;52144;48.040;-1.594;2023-08-06T12:13:01;101543.50;;;23.79;55.40
46211;BME280;52144;48.040;-1.594;2023-08-06T12:15:29;101547.25;;;23.88;55.87
46211;BME280;52144;48.040;-1.594;2023-08-06T12:17:59;101549.19;;;24.17;55.65
46211;BME280;52144;48.040;-1.594;2023-08-06T12:20:27;101549.41;;;24.35;54.61
46211;BME280;52144;48.040;-1.594;2023-08-06T12:22:55;101549.38;;;24.25;54.34
46211;BME280;52144;48.040;-1.594;2023-08-06T12:25:24;101547.03;;;25.00;52.77
46211;BME280;52144;48.040;-1.594;2023-08-06T12:27:52;101548.47;;;25.04;53.08
46211;BME280;52144;48.040;-1.594;2023-08-06T12:30:19;101544.44;;;25.28;52.52
46211;BME280;52144;48.040;-1.594;2023-08-06T12:32:47;101540.03;;;23.56;52.96
46211;BME280;52144;48.040;-1.594;2023-08-06T12:35:16;101549.75;;;23.49;54.33
46211;BME280;52144;48.040;-1.594;2023-08-06T12:37:43;101539.03;;;23.78;53.01
46211;BME280;52144;48.040;-1.594;2023-08-06T12:40:12;101547.94;;;23.59;53.57
46211;BME280;52144;48.040;-1.594;2023-08-06T12:42:44;101548.22;;;23.87;53.50
46211;BME280;52144;48.040;-1.594;2023-08-06T12:45:12;101546.78;;;23.83;53.00
46211;BME280;52144;48.040;-1.594;2023-08-06T12:47:40;101539.50;;;24.34;52.48